sensor_id;sensor_type;location;lat;lon;timestamp;temperature;humidity
57857;DHT22;43683;48.650;9.290;2023-07-09T00:00:52;18.20;68.30
57857;DHT22;43683;48.650;9.290;2023-07-09T00:03:18;18.00;68.50
57857;DHT22;43683;48.650;9.290;2023-07-09T00:05:47;18.00;68.70
57857;DHT22;43683;48.650;9.290;2023-07-09T00:08:26;18.00;68.80
57857;DHT22;43683;48.650;9.290;2023-07-09T00:10:54;18.00;69.30
57857;DHT22;43683;48.650;9.290;2023-07-09T00:13:20;17.90;69.10
57857;DHT22;43683;48.650;9.290;2023-07-09T00:15:46;17.90;69.10
57857;DHT22;43683;48.650;9.290;2023-07-09T00:18:11;17.90;69.30
57857;DHT22;43683;48.650;9.290;2023-07-09T00:20:37;17.80;69.40
57857;DHT22;43683;48.650;9.290;2023-07-09T00:23:02;17.80;69.70
57857;DHT22;43683;48.650;9.290;2023-07-09T00:25:30;17.80;69.90
57857;DHT22;43683;48.650;9.290;2023-07-09T00:27:56;17.80;69.90
57857;DHT22;43683;48.650;9.290;2023-07-09T00:30:23;17.80;70.00
57857;DHT22;43683;48.650;9.290;2023-07-09T00:32:49;17.80;70.20
57857;DHT22;43683;48.650;9.290;2023-07-09T00:35:17;17.70;70.20
57857;DHT22;43683;48.650;9.290;2023-07-09T00:37:43;17.70;70.30
57857;DHT22;43683;48.650;9.290;2023-07-09T00:40:21;17.70;70.50
57857;DHT22;43683;48.650;9.290;2023-07-09T00:42:49;17.70;70.80
57857;DHT22;43683;48.650;9.290;2023-07-09T00:45:21;17.70;70.60
57857;DHT22;43683;48.650;9.290;2023-07-09T00:48:05;17.70;69.90
57857;DHT22;43683;48.650;9.290;2023-07-09T00:50:39;17.70;70.40
57857;DHT22;43683;48.650;9.290;2023-07-09T00:53:16;17.60;70.50
57857;DHT22;43683;48.650;9.290;2023-07-09T00:55:45;17.60;70.90
57857;DHT22;43683;48.650;9.290;2023-07-09T00:58:14;17.60;70.90
57857;DHT22;43683;48.650;9.290;2023-07-09T01:00:46;17.60;71.20
57857;DHT22;43683;48.650;9.290;2023-07-09T01:03:25;17.60;71.60
57857;DHT22;43683;48.650;9.290;2023-07-09T01:05:54;17.50;71.80
57857;DHT22;43683;48.650;9.290;2023-07-09T01:08:23;17.50;71.50
57857;DHT22;43683;48.650;9.290;2023-07-09T01:10:49;17.50;71.80
57857;DHT22;43683;48.650;9.290;2023-07-09T01:13:16;17.40;72.10
57857;DHT22;43683;48.650;9.290;2023-07-09T01:15:41;17.40;72.30
57857;DHT22;43683;48.650;9.290;2023-07-09T01:18:07;17.30;72.40
57857;DHT22;43683;48.650;9.290;2023-07-09T01:20:37;17.30;72.70
57857;DHT22;43683;48.650;9.290;2023-07-09T01:23:03;17.20;72.80
57857;DHT22;43683;48.650;9.290;2023-07-09T01:25:31;17.10;73.00
57857;DHT22;43683;48.650;9.290;2023-07-09T01:27:57;17.10;73.20
57857;DHT22;43683;48.650;9.290;2023-07-09T01:30:30;17.10;73.40
57857;DHT22;43683;48.650;9.290;2023-07-09T01:32:59;17.00;73.80
57857;DHT22;43683;48.650;9.290;2023-07-09T01:35:27;17.00;73.70
57857;DHT22;43683;48.650;9.290;2023-07-09T01:37:54;17.00;73.90
57857;DHT22;43683;48.650;9.290;2023-07-09T01:40:22;16.90;73.90
57857;DHT22;43683;48.650;9.290;2023-07-09T01:42:50;16.90;74.20
57857;DHT22;43683;48.650;9.290;2023-07-09T01:45:16;16.80;74.40
57857;DHT22;43683;48.650;9.290;2023-07-09T01:47:42;16.80;74.50
57857;DHT22;43683;48.650;9.290;2023-07-09T01:50:09;16.80;74.80
57857;DHT22;43683;48.650;9.290;2023-07-09T01:52:37;16.70;74.80
57857;DHT22;43683;48.650;9.290;2023-07-09T01:55:03;16.70;75.00
57857;DHT22;43683;48.650;9.290;2023-07-09T01:57:29;16.70;74.40
57857;DHT22;43683;48.650;9.290;2023-07-09T02:00:20;16.70;74.50
57857;DHT22;43683;48.650;9.290;2023-07-09T02:02:46;16.60;74.80
57857;DHT22;43683;48.650;9.290;2023-07-09T02:05:15;16.60;75.10
57857;DHT22;43683;48.650;9.290;2023-07-09T02:07:40;16.60;75.20
57857;DHT22;43683;48.650;9.290;2023-07-09T02:10:07;16.50;75.40
57857;DHT22;43683;48.650;9.290;2023-07-09T02:12:33;16.50;75.60
57857;DHT22;43683;48.650;9.290;2023-07-09T02:14:58;16.50;75.70
57857;DHT22;43683;48.650;9.290;2023-07-09T02:17:24;16.50;76.00
57857;DHT22;43683;48.650;9.290;2023-07-09T02:19:50;16.40;76.10
57857;DHT22;43683;48.650;9.290;2023-07-09T02:22:15;16.40;76.30
57857;DHT22;43683;48.650;9.290;2023-07-09T02:24:41;16.40;76.50
57857;DHT22;43683;48.650;9.290;2023-07-09T02:27:07;16.40;76.60
57857;DHT22;43683;48.650;9.290;2023-07-09T02:29:35;16.40;76.60
57857;DHT22;43683;48.650;9.290;2023-07-09T02:32:01;16.40;76.80
57857;DHT22;43683;48.650;9.290;2023-07-09T02:34:27;16.40;77.00
57857;DHT22;43683;48.650;9.290;2023-07-09T02:36:54;16.40;77.10
57857;DHT22;43683;48.650;9.290;2023-07-09T02:39:20;16.40;77.10
57857;DHT22;43683;48.650;9.290;2023-07-09T02:41:46;16.30;77.20
57857;DHT22;43683;48.650;9.290;2023-07-09T02:44:11;16.30;77.20
57857;DHT22;43683;48.650;9.290;2023-07-09T02:46:37;16.40;77.50
57857;DHT22;43683;48.650;9.290;2023-07-09T02:49:04;16.30;77.40
57857;DHT22;43683;48.650;9.290;2023-07-09T02:51:30;16.30;77.70
57857;DHT22;43683;48.650;9.290;2023-07-09T02:53:57;16.40;77.60
57857;DHT22;43683;48.650;9.290;2023-07-09T02:56:23;16.40;77.70
57857;DHT22;43683;48.650;9.290;2023-07-09T02:58:52;16.30;77.90
57857;DHT22;43683;48.650;9.290;2023-07-09T03:01:18;16.30;78.20
57857;DHT22;43683;48.650;9.290;2023-07-09T03:03:59;16.30;78.10
57857;DHT22;43683;48.650;9.290;2023-07-09T03:06:27;16.30;78.60
57857;DHT22;43683;48.650;9.290;2023-07-09T03:08:53;16.20;78.50
57857;DHT22;43683;48.650;9.290;2023-07-09T03:11:20;16.20;78.60
57857;DHT22;43683;48.650;9.290;2023-07-09T03:13:46;16.10;78.70
57857;DHT22;43683;48.650;9.290;2023-07-09T03:16:12;16.20;78.90
57857;DHT22;43683;48.650;9.290;2023-07-09T03:18:38;16.10;78.90
57857;DHT22;43683;48.650;9.290;2023-07-09T03:21:07;16.10;78.90
57857;DHT22;43683;48.650;9.290;2023-07-09T03:23:33;16.20;78.90
57857;DHT22;43683;48.650;9.290;2023-07-09T03:25:58;16.20;78.90
57857;DHT22;43683;48.650;9.290;2023-07-09T03:28:25;16.20;78.90
57857;DHT22;43683;48.650;9.290;2023-07-09T03:30:53;16.20;79.10
57857;DHT22;43683;48.650;9.290;2023-07-09T03:33:19;16.20;79.40
57857;DHT22;43683;48.650;9.290;2023-07-09T03:35:45;16.10;79.30
57857;DHT22;43683;48.650;9.290;2023-07-09T03:38:11;16.20;79.20
57857;DHT22;43683;48.650;9.290;2023-07-09T03:40:37;16.30;79.10
57857;DHT22;43683;48.650;9.290;2023-07-09T03:43:03;16.30;79.10
57857;DHT22;43683;48.650;9.290;2023-07-09T03:45:30;16.30;79.30
57857;DHT22;43683;48.650;9.290;2023-07-09T03:47:56;16.30;79.20
57857;DHT22;43683;48.650;9.290;2023-07-09T03:50:21;16.40;79.20
57857;DHT22;43683;48.650;9.290;2023-07-09T03:52:47;16.40;79.20
57857;DHT22;43683;48.650;9.290;2023-07-09T03:55:13;16.40;79.10
57857;DHT22;43683;48.650;9.290;2023-07-09T03:57:40;16.40;79.20
57857;DHT22;43683;48.650;9.290;2023-07-09T04:00:06;16.50;79.30
57857;DHT22;43683;48.650;9.290;2023-07-09T04:02:35;16.50;79.40
57857;DHT22;43683;48.650;9.290;2023-07-09T04:05:01;16.50;79.30
57857;DHT22;43683;48.650;9.290;2023-07-09T04:07:27;16.50;79.30
57857;DHT22;43683;48.650;9.290;2023-07-09T04:09:52;16.60;79.30
57857;DHT22;43683;48.650;9.290;2023-07-09T04:12:18;16.60;79.20
57857;DHT22;43683;48.650;9.290;2023-07-09T04:14:43;16.70;79.20
57857;DHT22;43683;48.650;9.290;2023-07-09T04:17:09;16.70;79.10
57857;DHT22;43683;48.650;9.290;2023-07-09T04:19:34;16.80;78.90
57857;DHT22;43683;48.650;9.290;2023-07-09T04:22:00;16.90;79.00
57857;DHT22;43683;48.650;9.290;2023-07-09T04:24:25;16.90;79.00
57857;DHT22;43683;48.650;9.290;2023-07-09T04:26:52;17.00;79.00
57857;DHT22;43683;48.650;9.290;2023-07-09T04:29:22;17.10;78.80
57857;DHT22;43683;48.650;9.290;2023-07-09T04:31:47;17.20;78.70
57857;DHT22;43683;48.650;9.290;2023-07-09T04:34:13;17.30;78.60
57857;DHT22;43683;48.650;9.290;2023-07-09T04:36:39;17.40;78.30
57857;DHT22;43683;48.650;9.290;2023-07-09T04:39:04;17.50;78.00
57857;DHT22;43683;48.650;9.290;2023-07-09T04:41:30;17.60;77.70
57857;DHT22;43683;48.650;9.290;2023-07-09T04:43:56;17.70;77.50
57857;DHT22;43683;48.650;9.290;2023-07-09T04:46:21;17.70;77.30
57857;DHT22;43683;48.650;9.290;2023-07-09T04:48:47;17.80;77.10
57857;DHT22;43683;48.650;9.290;2023-07-09T04:51:12;17.90;76.70
57857;DHT22;43683;48.650;9.290;2023-07-09T04:53:38;18.00;76.40
57857;DHT22;43683;48.650;9.290;2023-07-09T04:56:03;18.10;76.20
57857;DHT22;43683;48.650;9.290;2023-07-09T04:58:29;18.20;75.90
57857;DHT22;43683;48.650;9.290;2023-07-09T05:00:59;18.30;75.60
57857;DHT22;43683;48.650;9.290;2023-07-09T05:03:25;18.50;75.40
57857;DHT22;43683;48.650;9.290;2023-07-09T05:05:50;18.60;74.80
57857;DHT22;43683;48.650;9.290;2023-07-09T05:08:16;18.80;74.40
57857;DHT22;43683;48.650;9.290;2023-07-09T05:10:44;18.90;74.00
57857;DHT22;43683;48.650;9.290;2023-07-09T05:13:10;19.10;73.70
57857;DHT22;43683;48.650;9.290;2023-07-09T05:15:40;19.30;73.00
57857;DHT22;43683;48.650;9.290;2023-07-09T05:18:06;19.40;72.60
57857;DHT22;43683;48.650;9.290;2023-07-09T05:20:31;19.60;72.20
57857;DHT22;43683;48.650;9.290;2023-07-09T05:22:57;19.70;72.00
57857;DHT22;43683;48.650;9.290;2023-07-09T05:25:22;19.80;71.80
57857;DHT22;43683;48.650;9.290;2023-07-09T05:27:48;19.90;71.60
57857;DHT22;43683;48.650;9.290;2023-07-09T05:30:13;20.00;71.40
57857;DHT22;43683;48.650;9.290;2023-07-09T05:32:39;20.10;71.10
57857;DHT22;43683;48.650;9.290;2023-07-09T05:35:05;20.20;71.00
57857;DHT22;43683;48.650;9.290;2023-07-09T05:37:31;20.20;71.00
57857;DHT22;43683;48.650;9.290;2023-07-09T05:39:56;20.20;71.00
57857;DHT22;43683;48.650;9.290;2023-07-09T05:42:22;20.20;70.90
57857;DHT22;43683;48.650;9.290;2023-07-09T05:44:48;20.20;71.00
57857;DHT22;43683;48.650;9.290;2023-07-09T05:47:13;20.60;70.10
57857;DHT22;43683;48.650;9.290;2023-07-09T05:49:39;21.60;66.70
57857;DHT22;43683;48.650;9.290;2023-07-09T05:52:05;22.20;64.40
57857;DHT22;43683;48.650;9.290;2023-07-09T05:54:31;22.60;63.30
57857;DHT22;43683;48.650;9.290;2023-07-09T05:56:57;23.60;60.40
57857;DHT22;43683;48.650;9.290;2023-07-09T05:59:22;24.70;57.40
57857;DHT22;43683;48.650;9.290;2023-07-09T06:01:48;25.60;55.00
57857;DHT22;43683;48.650;9.290;2023-07-09T06:04:13;26.40;53.00
57857;DHT22;43683;48.650;9.290;2023-07-09T06:06:39;27.00;51.50
57857;DHT22;43683;48.650;9.290;2023-07-09T06:09:06;27.50;50.60
57857;DHT22;43683;48.650;9.290;2023-07-09T06:11:33;27.70;50.00
57857;DHT22;43683;48.650;9.290;2023-07-09T06:13:59;27.80;50.00
57857;DHT22;43683;48.650;9.290;2023-07-09T06:16:25;27.90;49.60
57857;DHT22;43683;48.650;9.290;2023-07-09T06:18:50;28.10;49.50
57857;DHT22;43683;48.650;9.290;2023-07-09T06:21:16;28.40;49.00
57857;DHT22;43683;48.650;9.290;2023-07-09T06:23:41;28.40;48.80
57857;DHT22;43683;48.650;9.290;2023-07-09T06:26:07;28.40;48.90
57857;DHT22;43683;48.650;9.290;2023-07-09T06:28:32;28.30;50.10
57857;DHT22;43683;48.650;9.290;2023-07-09T06:30:58;28.10;50.10
57857;DHT22;43683;48.650;9.290;2023-07-09T06:33:25;27.80;51.30
57857;DHT22;43683;48.650;9.290;2023-07-09T06:35:54;27.10;53.30
57857;DHT22;43683;48.650;9.290;2023-07-09T06:38:20;26.30;55.00
57857;DHT22;43683;48.650;9.290;2023-07-09T06:40:46;25.70;56.80
57857;DHT22;43683;48.650;9.290;2023-07-09T06:43:12;25.30;58.00
57857;DHT22;43683;48.650;9.290;2023-07-09T06:45:38;25.10;58.80
57857;DHT22;43683;48.650;9.290;2023-07-09T06:48:03;25.00;59.10
57857;DHT22;43683;48.650;9.290;2023-07-09T06:50:32;25.00;59.10
57857;DHT22;43683;48.650;9.290;2023-07-09T06:52:58;25.10;59.10
57857;DHT22;43683;48.650;9.290;2023-07-09T06:55:24;25.10;59.00
57857;DHT22;43683;48.650;9.290;2023-07-09T06:57:50;25.20;58.80
57857;DHT22;43683;48.650;9.290;2023-07-09T07:00:16;25.40;58.30
57857;DHT22;43683;48.650;9.290;2023-07-09T07:02:42;25.50;58.00
57857;DHT22;43683;48.650;9.290;2023-07-09T07:05:07;25.60;57.80
57857;DHT22;43683;48.650;9.290;2023-07-09T07:07:33;25.80;57.50
57857;DHT22;43683;48.650;9.290;2023-07-09T07:09:59;25.80;57.40
57857;DHT22;43683;48.650;9.290;2023-07-09T07:12:27;26.00;57.10
57857;DHT22;43683;48.650;9.290;2023-07-09T07:14:54;26.00;56.80
57857;DHT22;43683;48.650;9.290;2023-07-09T07:17:20;26.20;56.70
57857;DHT22;43683;48.650;9.290;2023-07-09T07:19:46;26.50;56.30
57857;DHT22;43683;48.650;9.290;2023-07-09T07:22:12;26.70;56.00
57857;DHT22;43683;48.650;9.290;2023-07-09T07:24:37;26.90;55.30
57857;DHT22;43683;48.650;9.290;2023-07-09T07:27:03;26.90;54.80
57857;DHT22;43683;48.650;9.290;2023-07-09T07:29:29;27.10;54.50
57857;DHT22;43683;48.650;9.290;2023-07-09T07:31:54;27.30;54.50
57857;DHT22;43683;48.650;9.290;2023-07-09T07:34:20;27.50;54.00
57857;DHT22;43683;48.650;9.290;2023-07-09T07:36:46;27.70;53.90
57857;DHT22;43683;48.650;9.290;2023-07-09T07:39:12;27.90;53.40
57857;DHT22;43683;48.650;9.290;2023-07-09T07:41:37;28.10;53.00
57857;DHT22;43683;48.650;9.290;2023-07-09T07:44:04;28.30;52.80
57857;DHT22;43683;48.650;9.290;2023-07-09T07:46:30;28.50;52.40
57857;DHT22;43683;48.650;9.290;2023-07-09T07:48:57;28.80;51.90
57857;DHT22;43683;48.650;9.290;2023-07-09T07:51:23;29.10;51.20
57857;DHT22;43683;48.650;9.290;2023-07-09T07:53:48;29.30;50.70
57857;DHT22;43683;48.650;9.290;2023-07-09T07:56:14;29.50;50.20
57857;DHT22;43683;48.650;9.290;2023-07-09T07:58:40;29.60;49.70
57857;DHT22;43683;48.650;9.290;2023-07-09T08:01:05;29.90;49.40
57857;DHT22;43683;48.650;9.290;2023-07-09T08:03:31;30.20;49.00
57857;DHT22;43683;48.650;9.290;2023-07-09T08:05:56;30.40;48.50
57857;DHT22;43683;48.650;9.290;2023-07-09T08:08:22;30.60;48.00
57857;DHT22;43683;48.650;9.290;2023-07-09T08:10:49;30.90;47.30
57857;DHT22;43683;48.650;9.290;2023-07-09T08:13:15;31.10;47.00
57857;DHT22;43683;48.650;9.290;2023-07-09T08:15:41;31.20;46.20
57857;DHT22;43683;48.650;9.290;2023-07-09T08:18:08;31.40;45.80
57857;DHT22;43683;48.650;9.290;2023-07-09T08:20:33;31.70;45.30
57857;DHT22;43683;48.650;9.290;2023-07-09T08:22:59;32.10;44.00
57857;DHT22;43683;48.650;9.290;2023-07-09T08:25:24;32.60;42.70
57857;DHT22;43683;48.650;9.290;2023-07-09T08:27:50;33.10;41.60
57857;DHT22;43683;48.650;9.290;2023-07-09T08:30:15;33.60;40.40
57857;DHT22;43683;48.650;9.290;2023-07-09T08:32:41;34.20;39.70
57857;DHT22;43683;48.650;9.290;2023-07-09T08:35:07;34.50;38.80
57857;DHT22;43683;48.650;9.290;2023-07-09T08:37:35;34.80;38.60
57857;DHT22;43683;48.650;9.290;2023-07-09T08:40:01;35.10;37.60
57857;DHT22;43683;48.650;9.290;2023-07-09T08:42:35;35.00;37.20
57857;DHT22;43683;48.650;9.290;2023-07-09T08:50:16;35.30;36.40
57857;DHT22;43683;48.650;9.290;2023-07-09T08:52:47;35.50;36.50
57857;DHT22;43683;48.650;9.290;2023-07-09T08:55:16;35.60;36.10
57857;DHT22;43683;48.650;9.290;2023-07-09T08:57:53;35.60;36.00
57857;DHT22;43683;48.650;9.290;2023-07-09T09:00:29;35.70;35.50
57857;DHT22;43683;48.650;9.290;2023-07-09T09:03:03;35.50;35.20
57857;DHT22;43683;48.650;9.290;2023-07-09T09:05:32;35.50;35.00
57857;DHT22;43683;48.650;9.290;2023-07-09T09:11:41;35.20;35.30
57857;DHT22;43683;48.650;9.290;2023-07-09T09:14:30;35.50;35.30
57857;DHT22;43683;48.650;9.290;2023-07-09T09:16:56;35.70;34.90
57857;DHT22;43683;48.650;9.290;2023-07-09T09:19:23;35.70;34.50
57857;DHT22;43683;48.650;9.290;2023-07-09T09:21:57;35.60;35.30
57857;DHT22;43683;48.650;9.290;2023-07-09T09:24:30;35.60;34.30
57857;DHT22;43683;48.650;9.290;2023-07-09T09:26:58;35.40;34.40
57857;DHT22;43683;48.650;9.290;2023-07-09T09:29:24;35.30;34.30
57857;DHT22;43683;48.650;9.290;2023-07-09T09:31:52;35.30;34.00
57857;DHT22;43683;48.650;9.290;2023-07-09T09:34:23;35.50;34.70
57857;DHT22;43683;48.650;9.290;2023-07-09T09:36:50;35.60;34.60
57857;DHT22;43683;48.650;9.290;2023-07-09T09:39:17;35.70;33.90
57857;DHT22;43683;48.650;9.290;2023-07-09T09:41:44;35.80;33.20
57857;DHT22;43683;48.650;9.290;2023-07-09T09:44:24;35.70;33.00
57857;DHT22;43683;48.650;9.290;2023-07-09T09:46:49;35.60;32.20
57857;DHT22;43683;48.650;9.290;2023-07-09T09:49:18;35.50;32.90
57857;DHT22;43683;48.650;9.290;2023-07-09T09:51:45;35.40;32.30
57857;DHT22;43683;48.650;9.290;2023-07-09T09:54:20;35.50;32.50
57857;DHT22;43683;48.650;9.290;2023-07-09T09:56:48;35.80;31.80
57857;DHT22;43683;48.650;9.290;2023-07-09T09:59:23;35.80;31.30
57857;DHT22;43683;48.650;9.290;2023-07-09T10:02:00;35.90;31.10
57857;DHT22;43683;48.650;9.290;2023-07-09T10:04:27;36.00;30.50
57857;DHT22;43683;48.650;9.290;2023-07-09T10:06:55;36.00;30.70
57857;DHT22;43683;48.650;9.290;2023-07-09T10:09:53;36.10;31.40
57857;DHT22;43683;48.650;9.290;2023-07-09T10:14:51;36.50;31.20
57857;DHT22;43683;48.650;9.290;2023-07-09T10:17:38;36.60;30.80
57857;DHT22;43683;48.650;9.290;2023-07-09T10:20:28;36.70;30.10
57857;DHT22;43683;48.650;9.290;2023-07-09T10:23:29;36.60;30.60
57857;DHT22;43683;48.650;9.290;2023-07-09T10:26:03;36.80;29.70
57857;DHT22;43683;48.650;9.290;2023-07-09T10:31:15;36.80;30.10
57857;DHT22;43683;48.650;9.290;2023-07-09T10:34:04;36.80;29.60
57857;DHT22;43683;48.650;9.290;2023-07-09T10:39:16;36.80;29.40
57857;DHT22;43683;48.650;9.290;2023-07-09T10:41:43;37.00;29.70
57857;DHT22;43683;48.650;9.290;2023-07-09T10:46:43;37.20;28.50
57857;DHT22;43683;48.650;9.290;2023-07-09T10:49:13;37.20;28.30
57857;DHT22;43683;48.650;9.290;2023-07-09T10:51:43;37.40;28.00
57857;DHT22;43683;48.650;9.290;2023-07-09T10:54:35;37.40;27.90
57857;DHT22;43683;48.650;9.290;2023-07-09T10:57:14;37.40;27.60
57857;DHT22;43683;48.650;9.290;2023-07-09T10:59:43;37.40;27.20
57857;DHT22;43683;48.650;9.290;2023-07-09T11:02:30;37.60;27.20
57857;DHT22;43683;48.650;9.290;2023-07-09T11:04:58;37.80;27.40
57857;DHT22;43683;48.650;9.290;2023-07-09T11:07:41;38.00;27.40
57857;DHT22;43683;48.650;9.290;2023-07-09T11:10:22;38.20;27.30
57857;DHT22;43683;48.650;9.290;2023-07-09T11:13:03;38.10;27.00
57857;DHT22;43683;48.650;9.290;2023-07-09T11:15:42;38.10;26.70
57857;DHT22;43683;48.650;9.290;2023-07-09T11:18:13;38.10;26.30
57857;DHT22;43683;48.650;9.290;2023-07-09T11:20:44;38.00;26.40
57857;DHT22;43683;48.650;9.290;2023-07-09T11:23:21;38.10;26.60
57857;DHT22;43683;48.650;9.290;2023-07-09T11:28:56;38.50;26.90
57857;DHT22;43683;48.650;9.290;2023-07-09T11:31:35;38.50;26.90
57857;DHT22;43683;48.650;9.290;2023-07-09T11:34:21;38.30;27.10
57857;DHT22;43683;48.650;9.290;2023-07-09T11:39:30;37.90;27.30
57857;DHT22;43683;48.650;9.290;2023-07-09T11:41:56;38.00;26.90
57857;DHT22;43683;48.650;9.290;2023-07-09T11:44:32;38.00;26.90
57857;DHT22;43683;48.650;9.290;2023-07-09T11:49:27;38.20;27.40
57857;DHT22;43683;48.650;9.290;2023-07-09T11:51:57;38.40;27.10
57857;DHT22;43683;48.650;9.290;2023-07-09T11:54:24;38.60;27.20
57857;DHT22;43683;48.650;9.290;2023-07-09T11:56:59;38.70;27.10
57857;DHT22;43683;48.650;9.290;2023-07-09T11:59:26;38.90;27.30
57857;DHT22;43683;48.650;9.290;2023-07-09T12:01:53;38.90;26.50
57857;DHT22;43683;48.650;9.290;2023-07-09T12:04:25;38.80;26.50
57857;DHT22;43683;48.650;9.290;2023-07-09T12:06:57;38.80;26.20
57857;DHT22;43683;48.650;9.290;2023-07-09T12:09:30;38.70;26.30
57857;DHT22;43683;48.650;9.290;2023-07-09T12:11:57;38.80;26.30
57857;DHT22;43683;48.650;9.290;2023-07-09T12:14:22;38.90;26.10
57857;DHT22;43683;48.650;9.290;2023-07-09T12:16:53;38.80;26.00
57857;DHT22;43683;48.650;9.290;2023-07-09T12:19:20;39.00;25.70
57857;DHT22;43683;48.650;9.290;2023-07-09T12:21:49;39.20;25.30
57857;DHT22;43683;48.650;9.290;2023-07-09T12:24:26;39.50;25.30
57857;DHT22;43683;48.650;9.290;2023-07-09T12:26:58;39.60;24.80
57857;DHT22;43683;48.650;9.290;2023-07-09T12:29:44;38.70;25.00
57857;DHT22;43683;48.650;9.290;2023-07-09T12:32:15;38.70;25.10
57857;DHT22;43683;48.650;9.290;2023-07-09T12:34:41;38.10;25.20
57857;DHT22;43683;48.650;9.290;2023-07-09T12:37:28;37.70;25.50
57857;DHT22;43683;48.650;9.290;2023-07-09T12:39:59;37.60;25.50
57857;DHT22;43683;48.650;9.290;2023-07-09T12:42:36;37.20;25.60
57857;DHT22;43683;48.650;9.290;2023-07-09T12:45:02;37.40;25.70
57857;DHT22;43683;48.650;9.290;2023-07-09T12:47:28;37.70;25.90
57857;DHT22;43683;48.650;9.290;2023-07-09T12:50:01;38.30;25.50
57857;DHT22;43683;48.650;9.290;2023-07-09T12:52:27;38.80;25.20
57857;DHT22;43683;48.650;9.290;2023-07-09T12:54:56;39.10;25.10
57857;DHT22;43683;48.650;9.290;2023-07-09T12:57:23;39.50;25.10
57857;DHT22;43683;48.650;9.290;2023-07-09T12:59:49;39.60;25.00
57857;DHT22;43683;48.650;9.290;2023-07-09T13:04:40;39.70;25.40
57857;DHT22;43683;48.650;9.290;2023-07-09T13:09:52;40.00;24.80
57857;DHT22;43683;48.650;9.290;2023-07-09T13:12:18;40.30;24.60
57857;DHT22;43683;48.650;9.290;2023-07-09T13:14:53;40.50;24.50
57857;DHT22;43683;48.650;9.290;2023-07-09T13:17:19;40.30;24.40
57857;DHT22;43683;48.650;9.290;2023-07-09T13:19:45;40.20;24.60
57857;DHT22;43683;48.650;9.290;2023-07-09T13:22:18;40.30;24.90
57857;DHT22;43683;48.650;9.290;2023-07-09T13:24:45;40.40;24.70
57857;DHT22;43683;48.650;9.290;2023-07-09T13:27:15;40.60;24.40
57857;DHT22;43683;48.650;9.290;2023-07-09T13:29:41;40.70;24.10
57857;DHT22;43683;48.650;9.290;2023-07-09T13:32:11;40.90;24.00
57857;DHT22;43683;48.650;9.290;2023-07-09T13:34:37;41.10;23.90
57857;DHT22;43683;48.650;9.290;2023-07-09T13:37:05;41.00;23.50
57857;DHT22;43683;48.650;9.290;2023-07-09T13:39:31;40.80;23.60
57857;DHT22;43683;48.650;9.290;2023-07-09T13:41:57;40.70;23.60
57857;DHT22;43683;48.650;9.290;2023-07-09T13:44:25;40.70;23.50
57857;DHT22;43683;48.650;9.290;2023-07-09T13:46:53;40.70;23.50
57857;DHT22;43683;48.650;9.290;2023-07-09T13:49:21;40.80;23.40
57857;DHT22;43683;48.650;9.290;2023-07-09T13:51:49;40.60;23.20
57857;DHT22;43683;48.650;9.290;2023-07-09T13:54:21;40.50;23.40
57857;DHT22;43683;48.650;9.290;2023-07-09T13:56:48;40.80;23.60
57857;DHT22;43683;48.650;9.290;2023-07-09T13:59:17;40.20;23.30
57857;DHT22;43683;48.650;9.290;2023-07-09T14:01:44;39.10;23.80
57857;DHT22;43683;48.650;9.290;2023-07-09T14:04:12;38.10;24.40
57857;DHT22;43683;48.650;9.290;2023-07-09T14:06:38;37.40;24.60
57857;DHT22;43683;48.650;9.290;2023-07-09T14:09:04;37.70;24.70
57857;DHT22;43683;48.650;9.290;2023-07-09T14:11:31;38.30;24.40
57857;DHT22;43683;48.650;9.290;2023-07-09T14:13:57;38.70;24.10
57857;DHT22;43683;48.650;9.290;2023-07-09T14:16:23;39.00;23.70
57857;DHT22;43683;48.650;9.290;2023-07-09T14:18:48;39.20;23.80
57857;DHT22;43683;48.650;9.290;2023-07-09T14:21:17;39.60;24.00
57857;DHT22;43683;48.650;9.290;2023-07-09T14:23:43;39.90;23.90
57857;DHT22;43683;48.650;9.290;2023-07-09T14:26:09;39.60;23.80
57857;DHT22;43683;48.650;9.290;2023-07-09T14:28:35;38.80;24.40
57857;DHT22;43683;48.650;9.290;2023-07-09T14:31:04;38.10;24.60
57857;DHT22;43683;48.650;9.290;2023-07-09T14:33:30;37.80;24.90
57857;DHT22;43683;48.650;9.290;2023-07-09T14:35:55;37.50;24.80
57857;DHT22;43683;48.650;9.290;2023-07-09T14:38:25;37.20;25.30
57857;DHT22;43683;48.650;9.290;2023-07-09T14:40:52;37.00;25.20
57857;DHT22;43683;48.650;9.290;2023-07-09T14:43:19;37.20;25.20
57857;DHT22;43683;48.650;9.290;2023-07-09T14:45:45;37.80;25.10
57857;DHT22;43683;48.650;9.290;2023-07-09T14:48:13;38.40;24.60
57857;DHT22;43683;48.650;9.290;2023-07-09T14:50:40;38.60;24.40
57857;DHT22;43683;48.650;9.290;2023-07-09T14:55:47;39.60;23.70
57857;DHT22;43683;48.650;9.290;2023-07-09T14:58:16;39.90;23.60
57857;DHT22;43683;48.650;9.290;2023-07-09T15:00:42;40.30;23.70
57857;DHT22;43683;48.650;9.290;2023-07-09T15:03:10;40.60;23.60
57857;DHT22;43683;48.650;9.290;2023-07-09T15:05:36;40.60;23.30
57857;DHT22;43683;48.650;9.290;2023-07-09T15:08:13;40.50;23.30
57857;DHT22;43683;48.650;9.290;2023-07-09T15:10:39;40.40;23.00
57857;DHT22;43683;48.650;9.290;2023-07-09T15:13:05;40.00;23.20
57857;DHT22;43683;48.650;9.290;2023-07-09T15:15:33;40.20;23.30
57857;DHT22;43683;48.650;9.290;2023-07-09T15:18:00;40.50;23.40
57857;DHT22;43683;48.650;9.290;2023-07-09T15:20:33;40.90;23.00
57857;DHT22;43683;48.650;9.290;2023-07-09T15:22:59;41.00;22.80
57857;DHT22;43683;48.650;9.290;2023-07-09T15:28:12;41.20;22.40
57857;DHT22;43683;48.650;9.290;2023-07-09T15:30:38;40.90;22.40
57857;DHT22;43683;48.650;9.290;2023-07-09T15:33:05;40.90;22.30
57857;DHT22;43683;48.650;9.290;2023-07-09T15:35:35;40.90;22.10
57857;DHT22;43683;48.650;9.290;2023-07-09T15:40:46;40.30;22.00
57857;DHT22;43683;48.650;9.290;2023-07-09T15:43:13;39.80;22.20
57857;DHT22;43683;48.650;9.290;2023-07-09T15:45:42;39.20;22.40
57857;DHT22;43683;48.650;9.290;2023-07-09T15:50:47;38.40;22.60
57857;DHT22;43683;48.650;9.290;2023-07-09T15:53:13;38.10;22.70
57857;DHT22;43683;48.650;9.290;2023-07-09T15:55:39;37.90;22.90
57857;DHT22;43683;48.650;9.290;2023-07-09T15:58:04;37.60;23.10
57857;DHT22;43683;48.650;9.290;2023-07-09T16:00:33;37.40;23.30
57857;DHT22;43683;48.650;9.290;2023-07-09T16:03:00;37.20;23.50
57857;DHT22;43683;48.650;9.290;2023-07-09T16:05:29;37.10;23.30
57857;DHT22;43683;48.650;9.290;2023-07-09T16:07:57;37.00;23.20
57857;DHT22;43683;48.650;9.290;2023-07-09T16:10:24;37.00;23.60
57857;DHT22;43683;48.650;9.290;2023-07-09T16:12:51;36.80;23.90
57857;DHT22;43683;48.650;9.290;2023-07-09T16:15:19;36.60;23.70
57857;DHT22;43683;48.650;9.290;2023-07-09T16:17:45;36.30;23.70
57857;DHT22;43683;48.650;9.290;2023-07-09T16:20:17;36.00;23.90